1891 NOT_NAMED (1891070S11065)


IBTrACS version v04r00. Visit IBTrACS website for data access.
Please direct all questions to the IBTrACS Q and A forum

Storm track - Intensity - Wind Radii - Intensity Data - Source Data - All data

Summary Information

Storm ID 1891070S11065
Start Mar 11 06Z
End Mar 20 06Z
ATCF IDs
Track status Best track data.
Spur track This storm is a spur track associated with the main storm: 1891070S11065

Storm track plot

Map of storm track

Intensity plots

No Intensity information for this storm


Radial wind information

No radial wind information for this storm


Position and Intensity Table

BASIN ISO_TIME_________ NATURE LAT LON
degrees north degrees east
SI 1891-03-11 06:00:00 NR -10.60 65.00
SI 09:00:00 NR -10.61 64.98
SI 12:00:00 NR -10.63 64.95
SI 15:00:00 NR -10.65 64.90
SI 18:00:00 NR -10.69 64.82
SI 21:00:00 NR -10.74 64.72
SI 1891-03-12 00:00:00 NR -10.80 64.56
SI 03:00:00 NR -10.89 64.36
SI 06:00:00 NR -11.00 64.10
SI 09:00:00 NR -11.14 63.77
SI 12:00:00 NR -11.30 63.38
SI 15:00:00 NR -11.50 62.94
SI 18:00:00 NR -11.71 62.44
SI 21:00:00 NR -11.95 61.90
SI 1891-03-13 00:00:00 NR -12.21 61.33
SI 03:00:00 NR -12.50 60.73
SI 06:00:00 NR -12.80 60.10
SI 09:00:00 NR -13.04 59.40
SI 12:00:00 NR -13.30 58.66
SI 15:00:00 NR -13.58 57.90
SI 18:00:00 NR -13.90 57.15
SI 21:00:00 NR -14.26 56.42
SI 1891-03-14 00:00:00 NR -14.67 55.74
SI 03:00:00 NR -15.15 55.12
SI 06:00:00 NR -15.70 54.60
SI 09:00:00 NR -16.43 54.17
SI 12:00:00 NR -17.24 53.81
SI 15:00:00 NR -18.12 53.53
SI 18:00:00 NR -19.02 53.33
SI 21:00:00 NR -19.92 53.21
SI 1891-03-15 00:00:00 NR -20.79 53.16
SI 03:00:00 NR -21.59 53.19
SI 06:00:00 NR -22.30 53.30
SI 09:00:00 NR -22.82 53.44
SI 12:00:00 NR -23.25 53.67
SI 15:00:00 NR -23.61 53.97
SI 18:00:00 NR -23.92 54.33
SI 21:00:00 NR -24.17 54.74
SI 1891-03-16 00:00:00 NR -24.40 55.18
SI 03:00:00 NR -24.60 55.64
SI 06:00:00 NR -24.80 56.10
SI 09:00:00 NR -25.06 56.51
SI 12:00:00 NR -25.30 56.94
SI 15:00:00 NR -25.53 57.38
SI 18:00:00 NR -25.74 57.83
SI 21:00:00 NR -25.94 58.28
SI 1891-03-17 00:00:00 NR -26.14 58.73
SI 03:00:00 NR -26.32 59.17
SI 06:00:00 NR -26.50 59.60
SI 09:00:00 NR -26.69 60.01
SI 12:00:00 NR -26.87 60.41
SI 15:00:00 NR -27.04 60.81
SI 18:00:00 NR -27.21 61.20
SI 21:00:00 NR -27.37 61.58
SI 1891-03-18 00:00:00 NR -27.52 61.96
SI 03:00:00 NR -27.66 62.33
SI 06:00:00 NR -27.80 62.70
SI 09:00:00 NR -27.94 63.11
SI 12:00:00 NR -28.08 63.52
SI 15:00:00 NR -28.21 63.92
SI 18:00:00 NR -28.33 64.31
SI 21:00:00 NR -28.44 64.68
SI 1891-03-19 00:00:00 NR -28.54 65.02
SI 03:00:00 NR -28.63 65.33
SI 06:00:00 NR -28.70 65.60
SI 09:00:00 NR -28.76 65.83
SI 12:00:00 NR -28.80 66.01
SI 15:00:00 NR -28.83 66.16
SI 18:00:00 NR -28.86 66.29
SI 21:00:00 NR -28.88 66.38
SI 1891-03-20 00:00:00 NR -28.89 66.47
SI 03:00:00 NR -28.89 66.54
SI 06:00:00 NR -28.90 66.60

Source Information

Agency Information
USA
TOKYO
CMA
HKO
NEWDELHI
REUNION WMO-Best-Tracks.txt:Line=1584:xxxx891233
BOM
NADI
WELLINGTON
DS824
TD9636
TD9635
NEUMANN
MLC

All available IBTrACS Data

SEASON BASIN SUBBASIN ISO_TIME_________ NATURE LAT LON WMO AGENCY DIST2LAND LANDFALL IFLAG USA SSHS REUNION LAT REUNION LON REUNION TYPE REUNION TNUM STORM SPEED STORM DIR
Year degrees north degrees east km km 1 degrees north degrees east 1 kts degrees
1891 SI MM 1891-03-11 06:00:00 NR -10.60 65.00 reunion 1319 1319 _____O________ -1 -10.60 65.00 99 9.90 1 0
1891 SI MM 09:00:00 NR -10.61 64.98 1319 1313 _____P________ -1 -10.61 64.98 99 1 245
1891 SI MM 12:00:00 NR -10.63 64.95 1313 1304 _____P________ -1 -10.63 64.95 99 1 243
1891 SI MM 15:00:00 NR -10.65 64.90 1304 1298 _____P________ -1 -10.65 64.90 99 1 244
1891 SI MM 18:00:00 NR -10.69 64.82 1298 1291 _____P________ -1 -10.69 64.82 99 2 245
1891 SI MM 21:00:00 NR -10.74 64.72 1291 1276 _____P________ -1 -10.74 64.72 99 3 246
1891 SI MM 1891-03-12 00:00:00 NR -10.80 64.56 1276 1254 _____P________ -1 -10.80 64.56 99 4 246
1891 SI MM 03:00:00 NR -10.89 64.36 1254 1227 _____P________ -1 -10.89 64.36 99 5 246
1891 SI MM 06:00:00 NR -11.00 64.10 reunion 1227 1200 _____O________ -1 -11.00 64.10 99 9.90 6 247
1891 SI MM 09:00:00 NR -11.14 63.77 1200 1158 _____P________ -1 -11.14 63.77 99 8 247
1891 SI MM 12:00:00 NR -11.30 63.38 1158 1116 _____P________ -1 -11.30 63.38 99 9 246
1891 SI MM 15:00:00 NR -11.50 62.94 1111 1070 _____P________ -1 -11.50 62.94 99 10 246
1891 SI MM 18:00:00 NR -11.71 62.44 1065 1021 _____P________ -1 -11.71 62.44 99 11 246
1891 SI MM 21:00:00 NR -11.95 61.90 1011 968 _____P________ -1 -11.95 61.90 99 12 245
1891 SI MM 1891-03-13 00:00:00 NR -12.21 61.33 964 912 _____P________ -1 -12.21 61.33 99 13 245
1891 SI MM 03:00:00 NR -12.50 60.73 908 856 _____P________ -1 -12.50 60.73 99 13 244
1891 SI MM 06:00:00 NR -12.80 60.10 reunion 856 814 _____O________ -1 -12.80 60.10 99 9.90 14 247
1891 SI MM 09:00:00 NR -13.04 59.40 814 768 _____P________ -1 -13.04 59.40 99 15 250
1891 SI MM 12:00:00 NR -13.30 58.66 768 727 _____P________ -1 -13.30 58.66 99 16 250
1891 SI MM 15:00:00 NR -13.58 57.90 727 694 _____P________ -1 -13.58 57.90 99 16 248
1891 SI MM 18:00:00 NR -13.90 57.15 695 655 _____P________ -1 -13.90 57.15 99 16 245
1891 SI MM 21:00:00 NR -14.26 56.42 642 573 _____P________ -1 -14.26 56.42 99 16 241
1891 SI MM 1891-03-14 00:00:00 NR -14.67 55.74 561 504 _____P________ -1 -14.67 55.74 99 15 235
1891 SI MM 03:00:00 NR -15.15 55.12 494 440 _____P________ -1 -15.15 55.12 99 15 227
1891 SI MM 06:00:00 NR -15.70 54.60 reunion 440 408 _____O________ -1 -15.70 54.60 99 9.90 16 216
1891 SI MM 09:00:00 NR -16.43 54.17 411 399 _____P________ -1 -16.43 54.17 99 17 206
1891 SI MM 12:00:00 NR -17.24 53.81 404 375 _____P________ -1 -17.24 53.81 99 18 200
1891 SI MM 15:00:00 NR -18.12 53.53 375 306 _____P________ -1 -18.12 53.53 99 18 194
1891 SI MM 18:00:00 NR -19.02 53.33 306 247 _____P________ -1 -19.02 53.33 99 18 190
1891 SI MM 21:00:00 NR -19.92 53.21 247 212 _____P________ -1 -19.92 53.21 99 18 185
1891 SI MM 1891-03-15 00:00:00 NR -20.79 53.16 210 207 _____P________ -1 -20.79 53.16 99 17 181
1891 SI MM 03:00:00 NR -21.59 53.19 214 214 _____P________ -1 -21.59 53.19 99 15 175
1891 SI MM 06:00:00 NR -22.30 53.30 reunion 234 234 _____O________ -1 -22.30 53.30 99 9.90 13 169
1891 SI MM 09:00:00 NR -22.82 53.44 257 250 _____P________ -1 -22.82 53.44 99 10 160
1891 SI MM 12:00:00 NR -23.25 53.67 277 277 _____P________ -1 -23.25 53.67 99 9 149
1891 SI MM 15:00:00 NR -23.61 53.97 289 289 _____P________ -1 -23.61 53.97 99 9 138
1891 SI MM 18:00:00 NR -23.92 54.33 308 304 _____P________ -1 -23.92 54.33 99 9 129
1891 SI MM 21:00:00 NR -24.17 54.74 326 321 _____P________ -1 -24.17 54.74 99 9 122
1891 SI MM 1891-03-16 00:00:00 NR -24.40 55.18 337 336 _____P________ -1 -24.40 55.18 99 9 118
1891 SI MM 03:00:00 NR -24.60 55.64 357 357 _____P________ -1 -24.60 55.64 99 9 116
1891 SI MM 06:00:00 NR -24.80 56.10 reunion 383 383 _____O________ -1 -24.80 56.10 99 9.90 9 120
1891 SI MM 09:00:00 NR -25.06 56.51 423 423 _____P________ -1 -25.06 56.51 99 9 123
1891 SI MM 12:00:00 NR -25.30 56.94 455 455 _____P________ -1 -25.30 56.94 99 9 121
1891 SI MM 15:00:00 NR -25.53 57.38 493 493 _____P________ -1 -25.53 57.38 99 9 119
1891 SI MM 18:00:00 NR -25.74 57.83 530 530 _____P________ -1 -25.74 57.83 99 9 117
1891 SI MM 21:00:00 NR -25.94 58.28 573 573 _____P________ -1 -25.94 58.28 99 9 116
1891 SI MM 1891-03-17 00:00:00 NR -26.14 58.73 612 612 _____P________ -1 -26.14 58.73 99 9 115
1891 SI MM 03:00:00 NR -26.32 59.17 657 657 _____P________ -1 -26.32 59.17 99 9 115
1891 SI MM 06:00:00 NR -26.50 59.60 reunion 697 697 _____O________ -1 -26.50 59.60 99 9.90 8 116
1891 SI MM 09:00:00 NR -26.69 60.01 731 731 _____P________ -1 -26.69 60.01 99 8 117
1891 SI MM 12:00:00 NR -26.87 60.41 766 766 _____P________ -1 -26.87 60.41 99 8 116
1891 SI MM 15:00:00 NR -27.04 60.81 791 791 _____P________ -1 -27.04 60.81 99 8 116
1891 SI MM 18:00:00 NR -27.21 61.20 828 828 _____P________ -1 -27.21 61.20 99 8 115
1891 SI MM 21:00:00 NR -27.37 61.58 866 866 _____P________ -1 -27.37 61.58 99 7 115
1891 SI MM 1891-03-18 00:00:00 NR -27.52 61.96 895 895 _____P________ -1 -27.52 61.96 99 7 114
1891 SI MM 03:00:00 NR -27.66 62.33 929 929 _____P________ -1 -27.66 62.33 99 7 113
1891 SI MM 06:00:00 NR -27.80 62.70 reunion 960 960 _____O________ -1 -27.80 62.70 99 9.90 7 112
1891 SI MM 09:00:00 NR -27.94 63.11 991 991 _____P________ -1 -27.94 63.11 99 8 111
1891 SI MM 12:00:00 NR -28.08 63.52 1032 1032 _____P________ -1 -28.08 63.52 99 8 111
1891 SI MM 15:00:00 NR -28.21 63.92 1064 1064 _____P________ -1 -28.21 63.92 99 7 110
1891 SI MM 18:00:00 NR -28.33 64.31 1097 1097 _____P________ -1 -28.33 64.31 99 7 109
1891 SI MM 21:00:00 NR -28.44 64.68 1131 1131 _____P________ -1 -28.44 64.68 99 7 108
1891 SI MM 1891-03-19 00:00:00 NR -28.54 65.02 1158 1158 _____P________ -1 -28.54 65.02 99 6 108
1891 SI MM 03:00:00 NR -28.63 65.33 1186 1186 _____P________ -1 -28.63 65.33 99 5 107
1891 SI MM 06:00:00 NR -28.70 65.60 reunion 1214 1214 _____O________ -1 -28.70 65.60 99 9.90 5 106
1891 SI MM 09:00:00 NR -28.76 65.83 1235 1235 _____P________ -1 -28.76 65.83 99 4 106
1891 SI MM 12:00:00 NR -28.80 66.01 1249 1249 _____P________ -1 -28.80 66.01 99 3 105
1891 SI MM 15:00:00 NR -28.83 66.16 1262 1262 _____P________ -1 -28.83 66.16 99 2 103
1891 SI MM 18:00:00 NR -28.86 66.29 1277 1277 _____P________ -1 -28.86 66.29 99 2 102
1891 SI MM 21:00:00 NR -28.88 66.38 1284 1284 _____P________ -1 -28.88 66.38 99 2 100
1891 SI MM 1891-03-20 00:00:00 NR -28.89 66.47 1291 1291 _____P________ -1 -28.89 66.47 99 1 98
1891 SI MM 03:00:00 NR -28.89 66.54 1291 1291 _____P________ -1 -28.89 66.54 99 1 97
1891 SI MM 06:00:00 NR -28.90 66.60 reunion 1298 _____O________ -1 -28.90 66.60 99 9.90 1 96